createdAt,value
2018-03-17T00:04:06.107Z,4.13
2018-03-17T00:09:08.571Z,4.07
2018-03-17T00:14:11.167Z,5.17
2018-03-17T00:19:13.688Z,5.43
2018-03-17T00:24:16.199Z,4.07
2018-03-17T00:29:23.474Z,4.70
2018-03-17T00:34:26.894Z,5.10
2018-03-17T00:39:29.349Z,5.90
2018-03-17T00:44:31.813Z,7.37
2018-03-17T00:49:34.273Z,3.87
2018-03-17T00:54:36.760Z,5.40
2018-03-17T00:59:39.238Z,5.63
2018-03-17T01:04:41.732Z,3.57
2018-03-17T01:09:44.218Z,4.63
2018-03-17T01:14:46.677Z,4.00
2018-03-17T01:19:49.250Z,4.77
2018-03-17T01:24:51.721Z,4.50
2018-03-17T01:29:54.209Z,3.57
2018-03-17T01:34:56.707Z,4.53
2018-03-17T01:39:59.197Z,4.47
2018-03-17T01:45:01.687Z,5.30
2018-03-17T01:50:04.170Z,2.97
2018-03-17T01:55:06.660Z,4.50
2018-03-17T02:00:09.150Z,4.60
2018-03-17T02:05:11.640Z,5.23
2018-03-17T02:10:14.155Z,5.20
2018-03-17T02:15:16.625Z,4.37
2018-03-17T02:20:19.106Z,6.23
2018-03-17T02:25:21.570Z,5.07
2018-03-17T02:30:24.062Z,6.27
2018-03-17T02:35:26.613Z,6.67
2018-03-17T02:40:29.032Z,4.90
2018-03-17T02:45:31.516Z,4.37
2018-03-17T02:50:34.001Z,7.87
2018-03-17T02:55:36.484Z,5.40
2018-03-17T03:00:38.962Z,6.00
2018-03-17T03:05:41.438Z,5.47
2018-03-17T03:10:44.017Z,3.70
2018-03-17T03:15:47.434Z,6.00
2018-03-17T03:20:49.894Z,9.27
2018-03-17T03:25:52.386Z,3.50
2018-03-17T03:30:55.001Z,3.17
2018-03-17T03:35:57.549Z,5.80
2018-03-17T03:41:00.021Z,5.20
2018-03-17T03:46:02.529Z,5.80
2018-03-17T03:51:05.089Z,7.93
2018-03-17T03:56:07.567Z,4.10
2018-03-17T04:01:10.069Z,3.00
2018-03-17T04:06:12.565Z,6.00
2018-03-17T04:11:15.034Z,3.83
2018-03-17T04:16:17.576Z,3.57
2018-03-17T04:21:20.085Z,4.30
2018-03-17T04:26:22.546Z,4.70
2018-03-17T04:31:25.975Z,4.47
2018-03-17T04:36:28.519Z,4.27
2018-03-17T04:41:31.004Z,3.47
2018-03-17T04:46:33.480Z,4.83
2018-03-17T04:51:35.954Z,9.23
2018-03-17T04:56:38.403Z,3.60
2018-03-17T05:01:41.003Z,4.23
2018-03-17T05:06:43.502Z,3.90
2018-03-17T05:11:45.990Z,5.77
2018-03-17T05:16:48.451Z,4.23
2018-03-17T05:21:50.907Z,6.33
2018-03-17T05:26:53.360Z,3.90
2018-03-17T05:31:55.864Z,6.10
2018-03-17T05:36:58.359Z,3.70
2018-03-17T05:42:00.839Z,4.43
2018-03-17T05:47:03.307Z,4.23
2018-03-17T05:52:05.800Z,4.57
2018-03-17T05:57:08.295Z,6.33
2018-03-17T06:02:10.760Z,4.90
2018-03-17T06:07:13.367Z,3.83
2018-03-17T06:12:15.902Z,4.40
2018-03-17T06:17:18.391Z,3.33
2018-03-17T06:22:20.995Z,4.00
2018-03-17T06:27:23.498Z,6.97
2018-03-17T06:32:26.014Z,4.47
2018-03-17T06:37:28.475Z,4.00
2018-03-17T06:42:30.987Z,3.57
2018-03-17T06:47:33.460Z,6.17
2018-03-17T06:52:35.925Z,4.00
2018-03-17T06:57:38.419Z,4.40
2018-03-17T07:02:40.914Z,7.47
2018-03-17T07:07:43.410Z,4.53
2018-03-17T07:12:45.874Z,4.10
2018-03-17T07:17:48.326Z,3.33
2018-03-17T07:22:50.808Z,5.87
2018-03-17T07:27:53.258Z,6.43
2018-03-17T07:32:55.701Z,3.97
2018-03-17T07:37:58.165Z,4.93
2018-03-17T07:43:00.596Z,3.90
2018-03-17T07:48:03.203Z,3.87
2018-03-17T07:53:05.677Z,9.47
2018-03-17T07:58:08.170Z,3.63
2018-03-17T08:03:10.649Z,3.73
2018-03-17T08:08:13.241Z,4.77
2018-03-17T08:13:15.726Z,4.10
2018-03-17T08:18:18.204Z,4.70
2018-03-17T08:23:20.683Z,3.20
2018-03-17T08:28:23.247Z,4.67
2018-03-17T08:33:25.703Z,5.93
2018-03-17T08:38:28.183Z,6.70
2018-03-17T08:43:30.664Z,5.00
2018-03-17T08:48:33.113Z,5.20
2018-03-17T08:53:35.588Z,5.67
2018-03-17T08:58:38.053Z,4.47
2018-03-17T09:03:40.533Z,5.90
2018-03-17T09:08:54.839Z,5.20
2018-03-17T09:13:57.404Z,7.10
2018-03-17T09:18:59.876Z,8.33
2018-03-17T09:24:02.350Z,4.77
2018-03-17T09:29:04.820Z,7.73
2018-03-17T09:34:07.283Z,9.20
2018-03-17T09:39:09.917Z,6.07
2018-03-17T09:44:12.411Z,4.93
2018-03-17T09:49:14.883Z,4.97
2018-03-17T09:54:17.386Z,5.77
2018-03-17T09:59:19.851Z,6.43
2018-03-17T10:04:22.330Z,8.70
2018-03-17T10:09:24.860Z,6.73
2018-03-17T10:14:27.313Z,6.50
2018-03-17T10:19:29.764Z,5.20
2018-03-17T10:24:32.220Z,7.50
2018-03-17T10:29:34.684Z,4.80
2018-03-17T10:34:37.147Z,4.17
2018-03-17T10:39:39.601Z,4.63
2018-03-17T10:44:42.107Z,6.40
2018-03-17T10:49:44.586Z,5.63
2018-03-17T10:54:47.053Z,5.97
2018-03-17T10:59:49.530Z,6.63
2018-03-17T11:04:51.999Z,5.90
2018-03-17T11:09:54.574Z,5.43
2018-03-17T11:14:59.025Z,8.37
2018-03-17T11:20:01.595Z,5.60
2018-03-17T11:25:04.297Z,5.63
2018-03-17T11:30:06.876Z,6.07
2018-03-17T11:35:09.914Z,5.93
2018-03-17T11:40:13.305Z,5.10
2018-03-17T11:45:15.840Z,5.33
2018-03-17T11:50:18.321Z,5.10
2018-03-17T11:55:20.813Z,8.40
2018-03-17T12:00:23.325Z,5.40
2018-03-17T12:05:25.863Z,7.27
2018-03-17T12:10:28.344Z,6.53
2018-03-17T12:15:30.835Z,5.87
2018-03-17T12:20:33.342Z,5.82
2018-03-17T12:25:36.137Z,5.77
2018-03-17T12:30:41.366Z,6.40
2018-03-17T12:35:43.976Z,5.77
2018-03-17T12:40:46.513Z,7.00
2018-03-17T12:45:49.062Z,6.93
2018-03-17T12:50:51.519Z,5.07
2018-03-17T12:55:53.999Z,4.93
2018-03-17T13:00:56.505Z,5.33
2018-03-17T13:05:59.010Z,6.93
2018-03-17T13:11:01.536Z,6.33
2018-03-17T13:16:04.036Z,5.33
2018-03-17T13:21:06.644Z,6.27
2018-03-17T13:26:09.457Z,4.47
2018-03-17T13:31:12.034Z,6.97
2018-03-17T13:36:26.362Z,8.63
2018-03-17T13:41:28.888Z,4.40
2018-03-17T13:46:32.260Z,5.30
2018-03-17T13:51:34.926Z,5.87
2018-03-17T13:56:37.480Z,4.40
2018-03-17T14:01:39.971Z,5.67
2018-03-17T14:06:42.606Z,7.17
2018-03-17T14:11:45.278Z,5.57
2018-03-17T14:16:47.813Z,6.40
2018-03-17T14:21:50.310Z,5.27
2018-03-17T14:26:52.811Z,6.70
2018-03-17T14:31:55.313Z,5.30
2018-03-17T14:36:57.785Z,8.50
2018-03-17T14:42:00.267Z,6.87
2018-03-17T14:47:02.775Z,7.80
2018-03-17T14:52:05.360Z,4.87
2018-03-17T14:57:07.868Z,8.23
2018-03-17T15:02:12.430Z,6.63
2018-03-17T15:07:15.718Z,7.33
2018-03-17T15:12:18.569Z,7.03
2018-03-17T15:17:21.066Z,9.07
2018-03-17T15:22:23.556Z,6.80
2018-03-17T15:27:26.007Z,7.93
2018-03-17T15:32:28.524Z,8.43
2018-03-17T15:37:31.030Z,6.97
2018-03-17T15:42:33.501Z,5.77
2018-03-17T15:47:36.275Z,7.07
2018-03-17T15:52:39.384Z,9.20
2018-03-17T15:57:42.758Z,7.70
2018-03-17T16:02:49.776Z,7.93
2018-03-17T16:07:52.470Z,6.70
2018-03-17T16:12:55.062Z,7.20
2018-03-17T16:17:57.557Z,7.43
2018-03-17T16:23:00.091Z,8.80
2018-03-17T16:28:02.608Z,8.00
2018-03-17T16:33:05.124Z,6.33
2018-03-17T16:38:07.643Z,7.77
2018-03-17T16:43:10.365Z,7.67
2018-03-17T16:48:13.165Z,10.90
2018-03-17T16:53:15.702Z,5.97
2018-03-17T16:58:18.191Z,8.60
2018-03-17T17:03:20.808Z,9.47
2018-03-17T17:08:23.242Z,7.80
2018-03-17T17:13:25.734Z,8.70
2018-03-17T17:18:28.242Z,7.93
2018-03-17T17:23:30.738Z,8.67
2018-03-17T17:28:33.240Z,7.97
2018-03-17T17:33:35.934Z,7.37
2018-03-17T17:38:38.548Z,7.60
2018-03-17T17:43:41.128Z,9.00
2018-03-17T17:48:43.745Z,9.67
2018-03-17T17:53:46.213Z,8.27
2018-03-17T17:58:48.714Z,6.40
2018-03-17T18:03:51.248Z,7.10
2018-03-17T18:08:53.739Z,7.55
2018-03-17T18:13:56.221Z,9.50
2018-03-17T18:18:58.764Z,7.35
2018-03-17T18:24:01.326Z,7.97
2018-03-17T18:29:03.827Z,8.83
2018-03-17T18:34:06.339Z,7.40
2018-03-17T18:39:08.867Z,9.40
2018-03-17T18:44:11.565Z,7.83
2018-03-17T18:49:14.220Z,6.97
2018-03-17T18:54:16.738Z,9.45
2018-03-17T18:59:19.236Z,6.10
2018-03-17T19:04:22.952Z,6.13
2018-03-17T19:09:25.459Z,6.87
2018-03-17T19:14:28.028Z,9.17
2018-03-17T19:19:30.733Z,6.50
2018-03-17T19:24:33.708Z,7.90
2018-03-17T19:29:36.570Z,7.73
2018-03-17T19:34:39.562Z,7.47
2018-03-17T19:39:42.210Z,8.93
2018-03-17T19:44:44.753Z,7.90
2018-03-17T19:49:47.275Z,9.37
2018-03-17T19:54:49.806Z,7.60
2018-03-17T19:59:52.384Z,7.93
2018-03-17T20:04:55.055Z,14.07
2018-03-17T20:15:06.454Z,9.33
2018-03-17T20:20:09.150Z,9.67
2018-03-17T20:25:12.238Z,7.40
2018-03-17T20:30:14.800Z,8.77
2018-03-17T20:35:17.318Z,9.90
2018-03-17T20:40:19.976Z,9.80
2018-03-17T20:45:22.494Z,9.87
2018-03-17T20:50:24.994Z,8.40
2018-03-17T20:55:27.829Z,9.77
2018-03-17T21:00:31.197Z,8.77
2018-03-17T21:05:36.029Z,9.80
2018-03-17T21:10:38.958Z,11.33
2018-03-17T21:15:41.794Z,7.97
2018-03-17T21:20:45.732Z,7.83
2018-03-17T21:25:48.501Z,9.03
2018-03-17T21:30:50.986Z,10.70
2018-03-17T21:35:53.437Z,7.97
2018-03-17T21:40:55.934Z,9.50
2018-03-17T21:45:58.424Z,7.57
2018-03-17T21:51:00.921Z,6.80
2018-03-17T21:56:03.399Z,8.77
2018-03-17T22:01:07.440Z,8.00
2018-03-17T22:06:10.888Z,9.73
2018-03-17T22:11:15.154Z,7.80
2018-03-17T22:16:17.677Z,9.77
2018-03-17T22:21:20.776Z,8.97
2018-03-17T22:26:23.949Z,9.70
2018-03-17T22:31:27.841Z,9.57
2018-03-17T22:36:30.976Z,8.80
2018-03-17T22:41:34.715Z,10.40
2018-03-17T22:46:39.636Z,8.97
2018-03-17T22:51:42.148Z,8.60
2018-03-17T22:56:47.010Z,10.27
2018-03-17T23:01:49.497Z,10.40
2018-03-17T23:06:52.906Z,9.30
2018-03-17T23:11:55.401Z,8.93
2018-03-17T23:16:57.908Z,9.07
2018-03-17T23:22:00.385Z,10.80
2018-03-17T23:27:02.888Z,11.23
2018-03-17T23:32:05.509Z,12.67
2018-03-17T23:37:08.069Z,9.80
2018-03-17T23:42:10.622Z,10.43
2018-03-17T23:47:13.153Z,9.50
2018-03-17T23:52:16.077Z,10.63
2018-03-17T23:57:18.586Z,9.57
